Time;durP1;ratioP1;P1;durP2;ratioP2;P2;SDS_P1;SDS_P2;PMS_P1;PMS_P2;Temp;Humidity;BMP_temperature;BMP_pressure;BME280_temperature;BME280_humidity;BME280_pressure;Samples;Min_cycle;Max_cycle;Signal;HPM_P1;HPM_P2
2021/11/21 00:01:53;;;;;;;7.23;3.60;;;;;;;;;;5036784;28;20473;-73
2021/11/21 00:04:20;;;;;;;3.43;2.73;;;;;;;;;;5038422;28;20463;-74
2021/11/21 00:06:48;;;;;;;4.80;3.60;;;;;;;;;;5039212;28;20466;-72
2021/11/21 00:09:16;;;;;;;6.00;4.20;;;;;;;;;;5037358;28;20503;-72
2021/11/21 00:11:44;;;;;;;6.60;4.27;;;;;;;;;;5036379;28;20462;-72
2021/11/21 00:14:12;;;;;;;8.80;4.47;;;;;;;;;;5036884;28;20853;-72
2021/11/21 00:16:41;;;;;;;6.47;4.33;;;;;;;;;;5036112;28;20743;-72
2021/11/21 00:19:14;;;;;;;6.13;3.50;;;;;;;;;;5035895;28;20867;-72
2021/11/21 00:21:42;;;;;;;5.57;4.23;;;;;;;;;;5036804;28;20485;-71
2021/11/21 00:24:10;;;;;;;6.23;4.97;;;;;;;;;;5036470;28;20467;-71
2021/11/21 00:26:38;;;;;;;4.67;2.90;;;;;;;;;;5040830;28;20457;-72
2021/11/21 00:29:05;;;;;;;5.40;3.30;;;;;;;;;;5056953;28;20454;-73
2021/11/21 00:31:33;;;;;;;7.47;4.50;;;;;;;;;;5057547;28;20455;-72
2021/11/21 00:34:02;;;;;;;5.43;3.93;;;;;;;;;;5056003;28;20576;-72
2021/11/21 00:36:30;;;;;;;6.30;3.80;;;;;;;;;;5056834;28;20462;-72
2021/11/21 00:38:58;;;;;;;7.70;4.37;;;;;;;;;;5056165;28;20552;-72
2021/11/21 00:41:25;;;;;;;8.67;5.00;;;;;;;;;;5056271;28;20508;-72
2021/11/21 00:43:53;;;;;;;6.50;4.47;;;;;;;;;;5055526;28;20468;-72
2021/11/21 00:46:23;;;;;;;5.60;4.83;;;;;;;;;;5056366;28;20583;-72
2021/11/21 00:48:50;;;;;;;6.07;4.70;;;;;;;;;;5056513;28;20449;-71
2021/11/21 00:51:20;;;;;;;5.97;4.90;;;;;;;;;;5056048;28;20465;-71
2021/11/21 00:53:52;;;;;;;7.87;5.37;;;;;;;;;;5056126;28;20833;-72
2021/11/21 00:56:20;;;;;;;10.13;7.73;;;;;;;;;;5056090;28;20461;-72
2021/11/21 00:58:48;;;;;;;6.67;5.30;;;;;;;;;;5056173;28;20881;-72
2021/11/21 01:01:16;;;;;;;6.10;4.60;;;;;;;;;;5055658;28;20461;-71
2021/11/21 01:03:44;;;;;;;10.67;7.07;;;;;;;;;;5055644;28;20465;-72
2021/11/21 01:06:12;;;;;;;7.60;5.30;;;;;;;;;;5056675;28;20568;-72
2021/11/21 01:08:41;;;;;;;9.90;6.00;;;;;;;;;;5062425;28;20457;-72
2021/11/21 01:11:09;;;;;;;5.90;3.97;;;;;;;;;;5058035;28;20912;-71
2021/11/21 01:13:38;;;;;;;6.47;4.90;;;;;;;;;;5055873;28;20488;-72
2021/11/21 01:16:06;;;;;;;9.67;6.00;;;;;;;;;;5055863;28;20465;-72
2021/11/21 01:18:34;;;;;;;5.40;4.17;;;;;;;;;;5055772;28;20461;-72
2021/11/21 01:21:02;;;;;;;6.20;4.17;;;;;;;;;;5055241;28;20799;-72
2021/11/21 01:23:30;;;;;;;6.53;4.77;;;;;;;;;;5055771;28;20852;-72
2021/11/21 01:25:59;;;;;;;7.30;4.40;;;;;;;;;;5055560;28;20560;-72
2021/11/21 01:28:27;;;;;;;5.73;5.23;;;;;;;;;;5055707;28;20488;-72
2021/11/21 01:30:55;;;;;;;6.43;3.10;;;;;;;;;;5047756;28;20480;-72
2021/11/21 01:33:25;;;;;;;6.90;4.20;;;;;;;;;;5055960;28;20761;-71
2021/11/21 01:35:53;;;;;;;8.00;4.20;;;;;;;;;;5056370;28;20579;-72
2021/11/21 01:38:21;;;;;;;7.13;4.73;;;;;;;;;;5055212;28;20839;-72
2021/11/21 01:40:49;;;;;;;7.03;3.70;;;;;;;;;;5055773;28;20534;-72
2021/11/21 01:43:18;;;;;;;5.20;4.03;;;;;;;;;;5055116;28;20469;-72
2021/11/21 01:45:46;;;;;;;6.93;4.63;;;;;;;;;;5055277;28;20457;-72
2021/11/21 01:48:14;;;;;;;5.57;3.50;;;;;;;;;;5055652;28;20729;-71
2021/11/21 01:50:43;;;;;;;6.67;3.87;;;;;;;;;;5055201;28;20874;-72
2021/11/21 01:53:10;;;;;;;5.50;3.70;;;;;;;;;;5055027;28;20489;-72
2021/11/21 01:55:39;;;;;;;5.37;3.20;;;;;;;;;;5054775;28;20941;-71
2021/11/21 01:58:07;;;;;;;6.10;3.67;;;;;;;;;;5055422;28;20552;-71
2021/11/21 02:00:38;;;;;;;5.87;3.93;;;;;;;;;;5055168;28;20472;-71
2021/11/21 02:03:06;;;;;;;11.53;5.67;;;;;;;;;;5054903;28;20480;-72
2021/11/21 02:05:34;;;;;;;4.80;3.90;;;;;;;;;;5055074;28;20567;-72
2021/11/21 02:08:03;;;;;;;5.90;4.30;;;;;;;;;;5054606;28;20499;-72
2021/11/21 02:10:31;;;;;;;4.60;3.60;;;;;;;;;;5054303;28;20933;-72
2021/11/21 02:12:59;;;;;;;5.17;3.37;;;;;;;;;;5054487;28;20566;-72
2021/11/21 02:15:27;;;;;;;4.80;3.40;;;;;;;;;;5054657;28;20465;-72
2021/11/21 02:17:56;;;;;;;4.87;3.70;;;;;;;;;;5055827;28;20512;-73
2021/11/21 02:20:26;;;;;;;6.40;4.37;;;;;;;;;;5055716;28;20947;-73
2021/11/21 02:22:54;;;;;;;6.73;4.90;;;;;;;;;;5057024;28;20491;-73
2021/11/21 02:25:22;;;;;;;9.53;4.43;;;;;;;;;;5061547;28;20504;-73
2021/11/21 02:27:50;;;;;;;5.63;3.87;;;;;;;;;;5061188;28;20457;-73
2021/11/21 02:30:18;;;;;;;9.63;4.60;;;;;;;;;;5057452;28;20501;-73
2021/11/21 02:32:49;;;;;;;6.23;3.23;;;;;;;;;;5059529;28;20592;-72
2021/11/21 02:35:17;;;;;;;7.83;3.80;;;;;;;;;;5058907;28;20535;-72
2021/11/21 02:37:47;;;;;;;9.50;5.77;;;;;;;;;;5059133;28;20534;-72
2021/11/21 02:40:15;;;;;;;12.40;5.03;;;;;;;;;;5059070;28;20583;-72
2021/11/21 02:42:43;;;;;;;7.80;4.50;;;;;;;;;;5059498;28;20946;-72
2021/11/21 02:45:12;;;;;;;7.07;5.03;;;;;;;;;;5058583;28;20460;-72
2021/11/21 02:47:40;;;;;;;7.30;5.10;;;;;;;;;;5058995;28;20814;-71
2021/11/21 02:50:09;;;;;;;6.60;4.20;;;;;;;;;;5058574;28;20472;-72
2021/11/21 02:52:36;;;;;;;6.60;4.63;;;;;;;;;;5058573;28;21041;-72
2021/11/21 02:55:06;;;;;;;13.30;5.60;;;;;;;;;;5059207;28;20816;-73
2021/11/21 02:57:34;;;;;;;8.70;4.53;;;;;;;;;;5058636;28;20457;-72
2021/11/21 03:00:02;;;;;;;6.60;4.50;;;;;;;;;;5058914;28;20493;-72
2021/11/21 03:02:30;;;;;;;8.90;4.50;;;;;;;;;;5058799;28;20453;-72
2021/11/21 03:04:58;;;;;;;9.00;5.10;;;;;;;;;;5058859;28;20472;-72
2021/11/21 03:07:28;;;;;;;9.90;5.83;;;;;;;;;;5058758;28;20797;-72
2021/11/21 03:09:57;;;;;;;9.57;5.70;;;;;;;;;;5058876;28;20461;-73
2021/11/21 03:12:26;;;;;;;12.10;7.00;;;;;;;;;;5058746;28;20492;-72
2021/11/21 03:14:54;;;;;;;9.13;4.50;;;;;;;;;;5058414;28;20500;-72
2021/11/21 03:17:22;;;;;;;8.20;5.30;;;;;;;;;;5058702;28;20792;-72
2021/11/21 03:19:53;;;;;;;7.17;4.97;;;;;;;;;;5058784;28;20466;-72
2021/11/21 03:22:21;;;;;;;7.77;6.00;;;;;;;;;;5058176;28;20456;-72
2021/11/21 03:24:48;;;;;;;7.33;4.87;;;;;;;;;;5058073;28;20897;-73
2021/11/21 03:27:16;;;;;;;9.20;6.20;;;;;;;;;;5058844;28;20457;-73
2021/11/21 03:29:46;;;;;;;9.67;5.67;;;;;;;;;;5061175;28;20706;-73
2021/11/21 03:32:13;;;;;;;9.17;5.30;;;;;;;;;;5058287;28;20445;-72
2021/11/21 03:34:41;;;;;;;9.80;6.60;;;;;;;;;;5058211;28;20499;-72
2021/11/21 03:37:09;;;;;;;10.60;6.63;;;;;;;;;;5058332;28;20874;-72
2021/11/21 03:39:37;;;;;;;9.87;5.20;;;;;;;;;;5058244;28;20524;-71
2021/11/21 03:42:05;;;;;;;9.03;5.97;;;;;;;;;;5058081;28;21052;-73
2021/11/21 03:44:33;;;;;;;4.90;3.70;;;;;;;;;;5056850;28;20511;-72
2021/11/21 03:47:08;;;;;;;9.23;5.50;;;;;;;;;;5058154;28;20548;-72
2021/11/21 03:49:36;;;;;;;8.77;4.53;;;;;;;;;;5058016;28;20457;-72
2021/11/21 03:52:04;;;;;;;9.70;6.73;;;;;;;;;;5059186;28;20599;-71
2021/11/21 03:54:32;;;;;;;9.50;5.30;;;;;;;;;;5057797;28;20568;-71
2021/11/21 03:57:00;;;;;;;11.93;7.57;;;;;;;;;;5058379;28;20572;-71
2021/11/21 03:59:28;;;;;;;11.67;7.30;;;;;;;;;;5057546;28;20469;-71
2021/11/21 04:01:59;;;;;;;11.80;7.43;;;;;;;;;;5056888;28;20464;-71
2021/11/21 04:04:29;;;;;;;12.20;6.53;;;;;;;;;;5057621;28;20522;-73
2021/11/21 04:06:56;;;;;;;8.47;4.43;;;;;;;;;;5057325;28;20522;-73
2021/11/21 04:09:24;;;;;;;11.93;7.27;;;;;;;;;;5057058;28;20500;-73
2021/11/21 04:11:52;;;;;;;8.70;5.50;;;;;;;;;;5056529;28;20548;-73
2021/11/21 04:14:20;;;;;;;16.37;7.97;;;;;;;;;;5056201;28;20586;-73
2021/11/21 04:16:48;;;;;;;12.43;5.97;;;;;;;;;;5056864;28;20912;-73
2021/11/21 04:19:16;;;;;;;10.60;7.50;;;;;;;;;;5056440;28;20547;-73
2021/11/21 04:21:45;;;;;;;13.50;8.17;;;;;;;;;;5056950;28;20450;-73
2021/11/21 04:24:16;;;;;;;12.73;8.40;;;;;;;;;;5056716;28;20531;-73
2021/11/21 04:26:46;;;;;;;12.97;7.67;;;;;;;;;;5057357;28;20842;-72
2021/11/21 04:29:14;;;;;;;13.20;7.97;;;;;;;;;;5057107;28;20457;-73
2021/11/21 04:31:42;;;;;;;11.90;6.30;;;;;;;;;;5057225;28;20783;-72
2021/11/21 04:34:10;;;;;;;10.87;5.80;;;;;;;;;;5056541;28;20493;-73
2021/11/21 04:36:40;;;;;;;9.07;4.60;;;;;;;;;;5056654;28;20454;-72
2021/11/21 04:39:09;;;;;;;10.53;5.87;;;;;;;;;;5056324;28;20480;-72
2021/11/21 04:41:37;;;;;;;10.90;6.47;;;;;;;;;;5056148;28;20873;-72
2021/11/21 04:44:05;;;;;;;11.90;7.00;;;;;;;;;;5056745;28;20457;-72
2021/11/21 04:46:33;;;;;;;9.47;5.90;;;;;;;;;;5056158;28;20468;-73
2021/11/21 04:49:01;;;;;;;12.47;7.10;;;;;;;;;;5055510;28;20496;-73
2021/11/21 04:51:29;;;;;;;12.90;6.20;;;;;;;;;;5056879;28;20467;-72
2021/11/21 04:53:56;;;;;;;10.00;5.67;;;;;;;;;;5055958;28;20901;-73
2021/11/21 04:56:26;;;;;;;10.23;6.20;;;;;;;;;;5055472;28;20473;-73
2021/11/21 04:58:54;;;;;;;10.23;5.70;;;;;;;;;;5056779;28;20458;-73
2021/11/21 05:01:23;;;;;;;8.13;5.43;;;;;;;;;;5056522;28;20466;-72
2021/11/21 05:03:51;;;;;;;10.33;6.10;;;;;;;;;;5055769;28;20456;-72
2021/11/21 05:06:18;;;;;;;10.07;5.00;;;;;;;;;;5055559;28;20470;-72
2021/11/21 05:08:46;;;;;;;10.17;5.90;;;;;;;;;;5055521;28;20552;-72
2021/11/21 05:11:14;;;;;;;6.63;4.00;;;;;;;;;;5055499;28;20469;-73
2021/11/21 05:13:43;;;;;;;9.80;5.73;;;;;;;;;;5055544;28;20931;-71
2021/11/21 05:16:13;;;;;;;8.03;5.00;;;;;;;;;;5055647;28;20523;-73
2021/11/21 05:18:41;;;;;;;6.00;2.60;;;;;;;;;;5056086;28;20453;-72
2021/11/21 05:21:09;;;;;;;5.60;4.00;;;;;;;;;;5055371;28;20469;-72
2021/11/21 05:23:37;;;;;;;7.20;3.10;;;;;;;;;;5055954;28;20457;-72
2021/11/21 05:26:04;;;;;;;4.90;2.67;;;;;;;;;;5056335;28;20567;-73
2021/11/21 05:28:35;;;;;;;3.93;2.17;;;;;;;;;;5056300;28;20489;-73
2021/11/21 05:31:05;;;;;;;4.43;2.20;;;;;;;;;;5056201;28;20556;-73
2021/11/21 05:33:32;;;;;;;2.83;1.70;;;;;;;;;;5055530;28;20794;-73
2021/11/21 05:36:00;;;;;;;2.80;1.10;;;;;;;;;;5055679;28;20465;-73
2021/11/21 05:38:28;;;;;;;2.47;1.50;;;;;;;;;;5055667;28;20507;-73
2021/11/21 05:40:56;;;;;;;2.90;1.43;;;;;;;;;;5055693;28;20473;-73
2021/11/21 05:43:23;;;;;;;3.03;1.43;;;;;;;;;;5055923;28;20595;-73
2021/11/21 05:45:51;;;;;;;1.80;1.23;;;;;;;;;;5056287;28;20465;-73
2021/11/21 05:48:21;;;;;;;2.40;1.40;;;;;;;;;;5056168;28;20523;-73
2021/11/21 05:50:49;;;;;;;1.90;1.30;;;;;;;;;;5055465;28;20461;-73
2021/11/21 05:53:17;;;;;;;2.33;1.27;;;;;;;;;;5057133;28;20453;-73
2021/11/21 05:55:44;;;;;;;4.10;1.53;;;;;;;;;;5055561;28;21856;-73
2021/11/21 05:58:15;;;;;;;2.33;1.40;;;;;;;;;;5061120;28;20857;-73
2021/11/21 06:00:43;;;;;;;2.93;1.63;;;;;;;;;;5056249;28;20489;-73
2021/11/21 06:03:10;;;;;;;7.00;2.00;;;;;;;;;;5055726;28;20457;-73
2021/11/21 06:05:42;;;;;;;2.60;1.30;;;;;;;;;;5055650;28;20469;-74
2021/11/21 06:08:10;;;;;;;2.03;1.43;;;;;;;;;;5059318;28;20453;-73
2021/11/21 06:10:40;;;;;;;3.80;1.67;;;;;;;;;;5059500;28;20513;-73
2021/11/21 06:13:09;;;;;;;2.30;1.60;;;;;;;;;;5046993;28;20454;-73
2021/11/21 06:15:37;;;;;;;2.57;1.50;;;;;;;;;;5040286;28;21198;-72
2021/11/21 06:18:04;;;;;;;2.77;1.57;;;;;;;;;;5039710;28;20454;-72
2021/11/21 06:20:32;;;;;;;2.97;2.07;;;;;;;;;;5040465;28;20937;-72
2021/11/21 06:23:02;;;;;;;4.93;1.50;;;;;;;;;;5040231;28;20552;-73
2021/11/21 06:25:30;;;;;;;3.70;1.27;;;;;;;;;;5040410;28;20466;-73
2021/11/21 06:27:57;;;;;;;2.53;1.93;;;;;;;;;;5040192;28;20450;-73
2021/11/21 06:30:25;;;;;;;3.20;2.03;;;;;;;;;;5040110;28;20576;-73
2021/11/21 06:32:53;;;;;;;3.50;2.30;;;;;;;;;;5040107;28;20461;-73
2021/11/21 06:35:21;;;;;;;3.00;1.97;;;;;;;;;;5039808;28;20486;-73
2021/11/21 06:37:49;;;;;;;3.50;2.73;;;;;;;;;;5040258;28;20465;-73
2021/11/21 06:40:23;;;;;;;2.80;1.80;;;;;;;;;;5039663;28;20478;-72
2021/11/21 06:42:51;;;;;;;2.43;1.13;;;;;;;;;;5039480;28;20456;-72
2021/11/21 06:45:19;;;;;;;4.33;2.10;;;;;;;;;;5040275;28;20463;-72
2021/11/21 06:47:47;;;;;;;2.90;1.77;;;;;;;;;;5039749;28;20454;-71
2021/11/21 06:50:16;;;;;;;9.13;3.70;;;;;;;;;;5039785;28;20470;-72
2021/11/21 06:52:44;;;;;;;3.77;1.60;;;;;;;;;;5039816;28;20458;-72
2021/11/21 06:55:13;;;;;;;13.73;1.70;;;;;;;;;;5039956;28;20493;-72
2021/11/21 06:57:43;;;;;;;3.83;1.40;;;;;;;;;;5039919;28;20461;-72
2021/11/21 07:00:11;;;;;;;3.60;1.20;;;;;;;;;;5039926;28;20466;-73
2021/11/21 07:02:39;;;;;;;7.07;1.50;;;;;;;;;;5039943;28;20937;-73
2021/11/21 07:05:07;;;;;;;6.90;3.03;;;;;;;;;;5039739;28;20470;-72
2021/11/21 07:07:35;;;;;;;10.23;2.47;;;;;;;;;;5039081;28;20457;-73
2021/11/21 07:10:03;;;;;;;3.47;1.03;;;;;;;;;;5039249;28;21099;-73
2021/11/21 07:12:31;;;;;;;6.60;1.83;;;;;;;;;;5038413;28;20551;-72
2021/11/21 07:15:01;;;;;;;9.27;1.60;;;;;;;;;;5038853;28;21044;-72
2021/11/21 07:17:29;;;;;;;9.10;1.90;;;;;;;;;;5039254;28;20454;-72
2021/11/21 07:19:56;;;;;;;17.80;3.37;;;;;;;;;;5038022;28;20500;-73
2021/11/21 07:22:24;;;;;;;4.40;1.07;;;;;;;;;;5039149;28;20516;-73
2021/11/21 07:24:52;;;;;;;7.93;1.77;;;;;;;;;;5039232;28;20477;-73
2021/11/21 07:27:20;;;;;;;3.90;1.23;;;;;;;;;;5041214;28;20458;-73
2021/11/21 07:29:48;;;;;;;10.17;1.67;;;;;;;;;;5041908;28;20520;-73
2021/11/21 07:32:17;;;;;;;5.70;1.93;;;;;;;;;;5041161;28;20565;-73
2021/11/21 07:34:45;;;;;;;8.30;1.93;;;;;;;;;;5039165;28;20492;-72
2021/11/21 07:37:13;;;;;;;14.03;2.47;;;;;;;;;;5038993;28;20545;-72
2021/11/21 07:39:41;;;;;;;5.20;1.43;;;;;;;;;;5038894;28;20581;-72
2021/11/21 07:42:08;;;;;;;6.70;1.70;;;;;;;;;;5038786;28;20734;-72
2021/11/21 07:44:36;;;;;;;6.33;1.70;;;;;;;;;;5038365;28;20576;-72
2021/11/21 07:47:04;;;;;;;7.40;1.67;;;;;;;;;;5038449;28;20455;-72
2021/11/21 07:49:34;;;;;;;11.33;1.40;;;;;;;;;;5038657;28;20708;-72
2021/11/21 07:52:01;;;;;;;7.43;1.63;;;;;;;;;;5038640;28;20458;-72
2021/11/21 07:54:29;;;;;;;8.70;3.17;;;;;;;;;;5038806;28;20813;-72
2021/11/21 07:56:57;;;;;;;7.93;2.93;;;;;;;;;;5039257;28;20521;-73
2021/11/21 07:59:24;;;;;;;6.93;1.60;;;;;;;;;;5038686;28;20565;-73
2021/11/21 08:01:52;;;;;;;8.90;2.10;;;;;;;;;;5038332;28;20921;-73
2021/11/21 08:04:20;;;;;;;5.50;2.57;;;;;;;;;;5038207;28;20455;-72
2021/11/21 08:06:49;;;;;;;7.23;2.60;;;;;;;;;;5038077;28;20469;-73
2021/11/21 08:09:17;;;;;;;12.23;3.00;;;;;;;;;;5038466;28;20526;-72
2021/11/21 08:11:45;;;;;;;13.90;2.37;;;;;;;;;;5037857;28;20497;-73
2021/11/21 08:14:13;;;;;;;11.13;3.60;;;;;;;;;;5037884;28;20464;-73
2021/11/21 08:16:41;;;;;;;8.80;4.70;;;;;;;;;;5038500;28;20462;-72
2021/11/21 08:19:10;;;;;;;21.00;7.27;;;;;;;;;;5037959;28;20512;-72
2021/11/21 08:21:38;;;;;;;8.30;4.20;;;;;;;;;;5037915;28;20909;-72
2021/11/21 08:24:08;;;;;;;7.00;3.80;;;;;;;;;;5037331;28;20518;-73
2021/11/21 08:26:36;;;;;;;9.47;4.33;;;;;;;;;;5038070;28;20545;-73
2021/11/21 08:29:05;;;;;;;9.93;2.90;;;;;;;;;;5038238;28;20455;-73
2021/11/21 08:31:32;;;;;;;9.90;2.30;;;;;;;;;;5036553;28;20590;-72
2021/11/21 08:34:00;;;;;;;5.47;2.57;;;;;;;;;;5037101;28;20454;-72
2021/11/21 08:36:28;;;;;;;7.60;3.70;;;;;;;;;;5037000;28;20490;-72
2021/11/21 08:38:56;;;;;;;5.73;2.23;;;;;;;;;;5037612;28;20516;-72
2021/11/21 08:41:25;;;;;;;8.40;2.90;;;;;;;;;;5037092;28;20477;-72
2021/11/21 08:43:53;;;;;;;10.77;2.40;;;;;;;;;;5036684;28;20516;-71
2021/11/21 08:46:21;;;;;;;5.63;2.20;;;;;;;;;;5035246;28;20702;-71
2021/11/21 08:48:49;;;;;;;6.50;3.50;;;;;;;;;;5037145;28;20871;-72
2021/11/21 08:51:17;;;;;;;9.53;3.40;;;;;;;;;;5036920;28;20549;-72
2021/11/21 08:53:46;;;;;;;5.00;3.23;;;;;;;;;;5036413;28;20471;-72
2021/11/21 08:56:14;;;;;;;9.43;4.30;;;;;;;;;;5042986;28;20492;-71
2021/11/21 08:58:45;;;;;;;7.47;2.50;;;;;;;;;;5055552;28;20489;-71
2021/11/21 09:01:13;;;;;;;9.50;3.40;;;;;;;;;;5053996;28;20457;-71
2021/11/21 09:03:41;;;;;;;4.73;2.97;;;;;;;;;;5054737;28;20741;-71
2021/11/21 09:06:09;;;;;;;5.97;2.10;;;;;;;;;;5054741;28;20473;-71
2021/11/21 09:08:37;;;;;;;6.93;2.70;;;;;;;;;;5055034;28;20797;-70
2021/11/21 09:11:05;;;;;;;4.80;2.90;;;;;;;;;;5054940;28;20472;-71
2021/11/21 09:13:36;;;;;;;6.63;2.57;;;;;;;;;;5056060;28;20921;-71
2021/11/21 09:16:05;;;;;;;7.40;4.10;;;;;;;;;;5054389;28;20505;-71
2021/11/21 09:18:33;;;;;;;4.30;2.77;;;;;;;;;;5054590;28;20456;-71
2021/11/21 09:21:01;;;;;;;8.17;3.20;;;;;;;;;;5055038;28;20520;-71
2021/11/21 09:23:29;;;;;;;4.13;2.70;;;;;;;;;;5054544;28;20909;-71
2021/11/21 09:25:57;;;;;;;6.80;3.03;;;;;;;;;;5055572;28;20480;-71
2021/11/21 09:28:25;;;;;;;6.20;3.50;;;;;;;;;;5054834;28;20464;-71
2021/11/21 09:30:53;;;;;;;5.10;2.80;;;;;;;;;;5055769;28;20846;-71
2021/11/21 09:33:23;;;;;;;3.07;2.20;;;;;;;;;;5046883;28;20458;-71
2021/11/21 09:35:51;;;;;;;10.53;4.80;;;;;;;;;;5044581;28;20496;-71
2021/11/21 09:38:24;;;;;;;5.03;2.70;;;;;;;;;;5056465;28;20790;-71
2021/11/21 09:40:52;;;;;;;5.93;3.00;;;;;;;;;;5055160;28;20463;-72
2021/11/21 09:43:24;;;;;;;6.83;3.77;;;;;;;;;;5050001;28;20713;-71
2021/11/21 09:45:51;;;;;;;10.30;3.67;;;;;;;;;;5054309;28;21030;-71
2021/11/21 09:48:22;;;;;;;8.60;5.43;;;;;;;;;;5037249;28;20754;-72
2021/11/21 09:50:51;;;;;;;7.73;3.30;;;;;;;;;;5035669;28;20465;-71
2021/11/21 09:53:19;;;;;;;10.03;3.13;;;;;;;;;;5035283;28;20454;-72
2021/11/21 09:55:49;;;;;;;6.50;3.97;;;;;;;;;;5035081;28;20478;-71
2021/11/21 09:58:18;;;;;;;8.27;4.70;;;;;;;;;;5035089;28;20477;-70
2021/11/21 10:00:48;;;;;;;5.60;3.17;;;;;;;;;;5035689;28;20465;-71
2021/11/21 10:03:19;;;;;;;11.27;6.10;;;;;;;;;;5035927;28;20503;-71
2021/11/21 10:05:50;;;;;;;9.77;2.30;;;;;;;;;;5034419;28;20510;-72
2021/11/21 10:08:21;;;;;;;6.23;3.43;;;;;;;;;;5034534;28;20748;-71
2021/11/21 10:10:50;;;;;;;8.70;3.27;;;;;;;;;;5034403;28;20821;-71
2021/11/21 10:13:31;;;;;;;10.00;2.50;;;;;;;;;;5035799;28;20473;-71
2021/11/21 10:16:02;;;;;;;5.90;2.77;;;;;;;;;;5034240;28;20743;-70
2021/11/21 10:18:33;;;;;;;7.13;2.63;;;;;;;;;;5035137;28;20908;-72
2021/11/21 10:21:13;;;;;;;10.87;4.10;;;;;;;;;;5034905;28;20458;-72
2021/11/21 10:23:43;;;;;;;11.57;3.90;;;;;;;;;;5048480;28;20542;-72
2021/11/21 10:26:20;;;;;;;11.00;4.10;;;;;;;;;;5053897;28;20464;-72
2021/11/21 10:28:49;;;;;;;8.00;4.63;;;;;;;;;;5034552;28;20489;-71
2021/11/21 10:31:17;;;;;;;6.83;3.70;;;;;;;;;;5034966;28;20454;-71
2021/11/21 10:33:46;;;;;;;8.43;3.30;;;;;;;;;;5045514;28;20554;-71
2021/11/21 10:36:19;;;;;;;5.83;2.30;;;;;;;;;;5053866;28;20572;-71
2021/11/21 10:38:49;;;;;;;4.20;2.20;;;;;;;;;;5053983;28;20453;-71
2021/11/21 10:41:19;;;;;;;6.90;2.50;;;;;;;;;;5055672;28;20765;-71
2021/11/21 10:43:50;;;;;;;11.17;3.37;;;;;;;;;;5056212;28;20445;-71
2021/11/21 10:46:25;;;;;;;7.43;2.80;;;;;;;;;;5053279;28;20881;-71
2021/11/21 10:48:53;;;;;;;7.00;2.77;;;;;;;;;;5034972;28;20498;-72
2021/11/21 10:51:21;;;;;;;6.50;3.10;;;;;;;;;;5034676;28;20454;-70
2021/11/21 10:53:51;;;;;;;5.30;2.70;;;;;;;;;;5036584;28;20614;-71
2021/11/21 10:56:19;;;;;;;9.10;6.30;;;;;;;;;;5038543;28;20485;-71
2021/11/21 10:58:49;;;;;;;4.57;3.27;;;;;;;;;;5038286;28;20896;-71
2021/11/21 11:01:25;;;;;;;11.17;5.13;;;;;;;;;;5037746;28;20454;-72
2021/11/21 11:04:12;;;;;;;9.93;5.30;;;;;;;;;;5037988;28;20462;-70
2021/11/21 11:06:40;;;;;;;10.47;3.63;;;;;;;;;;5056770;28;20950;-71
2021/11/21 11:09:21;;;;;;;8.93;2.97;;;;;;;;;;5058470;28;20548;-72
2021/11/21 11:11:49;;;;;;;10.13;4.37;;;;;;;;;;5058097;28;20590;-71
2021/11/21 11:14:21;;;;;;;14.90;5.80;;;;;;;;;;5048470;28;20458;-72
2021/11/21 11:16:49;;;;;;;5.73;3.03;;;;;;;;;;5037756;28;20537;-71
2021/11/21 11:19:19;;;;;;;5.40;2.30;;;;;;;;;;5038839;28;20752;-72
2021/11/21 11:21:50;;;;;;;4.47;3.10;;;;;;;;;;5037166;28;20477;-72
2021/11/21 11:24:22;;;;;;;5.70;2.03;;;;;;;;;;5038302;28;20465;-72
2021/11/21 11:26:56;;;;;;;5.57;2.43;;;;;;;;;;5038441;28;20466;-72
2021/11/21 11:29:28;;;;;;;5.67;3.37;;;;;;;;;;5037109;28;20959;-72
2021/11/21 11:32:16;;;;;;;7.33;2.23;;;;;;;;;;5037158;28;20493;-72
2021/11/21 11:34:47;;;;;;;7.93;1.83;;;;;;;;;;5049390;28;20869;-73
2021/11/21 11:37:15;;;;;;;14.67;6.17;;;;;;;;;;5057748;28;20759;-72
2021/11/21 11:39:46;;;;;;;7.70;3.07;;;;;;;;;;5058139;28;20467;-72
2021/11/21 11:42:32;;;;;;;4.60;2.50;;;;;;;;;;5056835;28;20489;-72
2021/11/21 11:45:00;;;;;;;12.27;3.67;;;;;;;;;;5056844;28;20885;-71
2021/11/21 11:47:29;;;;;;;19.83;3.10;;;;;;;;;;5057146;28;20469;-72
2021/11/21 11:49:57;;;;;;;8.23;2.57;;;;;;;;;;5055972;28;20458;-73
2021/11/21 11:52:43;;;;;;;10.77;3.80;;;;;;;;;;5057128;28;20768;-72
2021/11/21 11:55:12;;;;;;;8.83;3.50;;;;;;;;;;5056918;28;20453;-72
2021/11/21 11:57:40;;;;;;;8.03;2.83;;;;;;;;;;5057271;28;20582;-72
2021/11/21 12:00:26;;;;;;;8.57;2.87;;;;;;;;;;5057218;28;20458;-72
2021/11/21 12:02:58;;;;;;;7.27;4.10;;;;;;;;;;5041500;28;20493;-71
2021/11/21 12:05:30;;;;;;;6.00;2.70;;;;;;;;;;5035609;28;20449;-72
2021/11/21 12:08:32;;;;;;;8.33;3.57;;;;;;;;;;5035620;28;20914;-72
2021/11/21 12:11:02;;;;;;;9.43;3.57;;;;;;;;;;5045303;28;20581;-72
2021/11/21 12:13:32;;;;;;;10.53;6.10;;;;;;;;;;5043380;28;21075;-72
2021/11/21 12:16:02;;;;;;;7.43;3.73;;;;;;;;;;5040613;28;20574;-73
2021/11/21 12:18:49;;;;;;;9.77;4.57;;;;;;;;;;5049494;28;20589;-73
2021/11/21 12:21:34;;;;;;;8.40;2.90;;;;;;;;;;5036685;28;20520;-73
2021/11/21 12:24:04;;;;;;;5.03;2.00;;;;;;;;;;5037004;28;20719;-72
2021/11/21 12:26:39;;;;;;;5.80;2.73;;;;;;;;;;5036820;28;20815;-73
2021/11/21 12:29:29;;;;;;;6.47;3.20;;;;;;;;;;5036998;28;20842;-72
2021/11/21 12:31:59;;;;;;;8.10;3.37;;;;;;;;;;5036954;28;20513;-73
2021/11/21 12:34:32;;;;;;;5.37;2.63;;;;;;;;;;5036211;28;20458;-72
2021/11/21 12:37:17;;;;;;;7.83;2.60;;;;;;;;;;5040618;28;20488;-73
2021/11/21 12:39:50;;;;;;;6.17;2.00;;;;;;;;;;5032266;28;20494;-72
2021/11/21 12:42:20;;;;;;;7.67;3.83;;;;;;;;;;5055011;28;20523;-72
2021/11/21 12:44:48;;;;;;;9.90;2.03;;;;;;;;;;5054745;28;20537;-72
2021/11/21 12:47:16;;;;;;;5.43;3.30;;;;;;;;;;5053915;28;20472;-71
2021/11/21 12:49:45;;;;;;;9.60;2.03;;;;;;;;;;5054620;28;20544;-71
2021/11/21 12:52:14;;;;;;;7.30;2.93;;;;;;;;;;5055361;28;20472;-73
2021/11/21 12:54:42;;;;;;;7.70;4.67;;;;;;;;;;5049831;28;20541;-73
2021/11/21 12:57:12;;;;;;;7.17;1.90;;;;;;;;;;5047254;28;20486;-72
2021/11/21 12:59:53;;;;;;;9.37;2.43;;;;;;;;;;5060423;28;20465;-72
2021/11/21 13:02:21;;;;;;;4.80;2.17;;;;;;;;;;5037868;28;20570;-72
2021/11/21 13:04:54;;;;;;;17.43;4.47;;;;;;;;;;5034892;28;20557;-72
2021/11/21 13:07:30;;;;;;;9.17;2.80;;;;;;;;;;5035909;28;20465;-73
2021/11/21 13:10:04;;;;;;;7.23;2.60;;;;;;;;;;5043721;28;20449;-72
2021/11/21 13:12:33;;;;;;;4.50;1.90;;;;;;;;;;5048866;28;20461;-72
2021/11/21 13:15:03;;;;;;;10.63;4.00;;;;;;;;;;5054993;28;20473;-72
2021/11/21 13:17:32;;;;;;;8.80;2.37;;;;;;;;;;5057335;28;20492;-73
2021/11/21 13:20:08;;;;;;;5.00;1.43;;;;;;;;;;5059957;28;20472;-72
2021/11/21 13:22:56;;;;;;;7.60;1.73;;;;;;;;;;5060989;28;20445;-71
2021/11/21 13:25:42;;;;;;;7.30;4.60;;;;;;;;;;5057590;28;20507;-71
2021/11/21 13:28:27;;;;;;;4.87;2.90;;;;;;;;;;5056909;28;20527;-72
2021/11/21 13:30:58;;;;;;;7.33;2.60;;;;;;;;;;5058008;28;20845;-72
2021/11/21 13:33:29;;;;;;;6.10;1.93;;;;;;;;;;5042872;28;20458;-72
2021/11/21 13:36:01;;;;;;;7.50;3.10;;;;;;;;;;5046729;28;20760;-72
2021/11/21 13:38:35;;;;;;;5.47;2.63;;;;;;;;;;5050442;28;20561;-72
2021/11/21 13:41:07;;;;;;;8.07;2.00;;;;;;;;;;5035122;28;20467;-72
2021/11/21 13:43:43;;;;;;;4.00;1.80;;;;;;;;;;5036112;28;20489;-73
2021/11/21 13:46:20;;;;;;;5.83;1.53;;;;;;;;;;5037024;28;20485;-73
2021/11/21 13:48:52;;;;;;;4.40;1.60;;;;;;;;;;5037262;28;20532;-73
2021/11/21 13:51:30;;;;;;;8.50;2.33;;;;;;;;;;5035562;28;20458;-73
2021/11/21 13:53:59;;;;;;;6.03;3.63;;;;;;;;;;5043283;28;20489;-72
2021/11/21 13:56:35;;;;;;;6.73;3.37;;;;;;;;;;5054018;28;20473;-72
2021/11/21 13:59:13;;;;;;;9.57;3.60;;;;;;;;;;5053078;28;20757;-73
2021/11/21 14:01:47;;;;;;;9.23;2.80;;;;;;;;;;5050873;28;20460;-72
2021/11/21 14:04:16;;;;;;;6.03;3.23;;;;;;;;;;5053624;28;20523;-73
2021/11/21 14:06:43;;;;;;;4.70;2.40;;;;;;;;;;5053811;28;20499;-72
2021/11/21 14:09:12;;;;;;;9.13;3.10;;;;;;;;;;5053690;28;20523;-71
2021/11/21 14:11:41;;;;;;;12.50;4.37;;;;;;;;;;5050752;28;20462;-70
2021/11/21 14:14:10;;;;;;;8.83;3.00;;;;;;;;;;5053194;28;20734;-73
2021/11/21 14:16:42;;;;;;;11.23;3.33;;;;;;;;;;5054226;28;20495;-72
2021/11/21 14:19:25;;;;;;;4.23;2.10;;;;;;;;;;5035794;28;20479;-73
2021/11/21 14:22:03;;;;;;;7.00;3.23;;;;;;;;;;5034868;28;20539;-73
2021/11/21 14:24:31;;;;;;;9.60;4.40;;;;;;;;;;5034448;28;20486;-72
2021/11/21 14:27:08;;;;;;;6.60;2.70;;;;;;;;;;5033760;28;20454;-72
2021/11/21 14:32:24;;;;;;;5.57;2.50;;;;;;;;;;5043741;28;20556;-72
2021/11/21 14:34:54;;;;;;;8.60;3.20;;;;;;;;;;5038167;28;20462;-73
2021/11/21 14:37:23;;;;;;;10.93;2.67;;;;;;;;;;5037590;28;20482;-72
2021/11/21 14:39:55;;;;;;;8.13;2.23;;;;;;;;;;5037537;28;20465;-72
2021/11/21 14:42:34;;;;;;;9.60;4.00;;;;;;;;;;5040439;28;20522;-73
2021/11/21 14:45:02;;;;;;;5.47;2.07;;;;;;;;;;5047616;28;20458;-71
2021/11/21 14:47:29;;;;;;;8.77;2.60;;;;;;;;;;5037847;28;20458;-73
2021/11/21 14:50:03;;;;;;;3.07;1.77;;;;;;;;;;5037763;28;20539;-73
2021/11/21 14:52:33;;;;;;;4.20;2.10;;;;;;;;;;5037871;28;20446;-72
2021/11/21 14:55:05;;;;;;;6.27;2.70;;;;;;;;;;5037343;28;20466;-73
2021/11/21 14:57:40;;;;;;;3.93;1.93;;;;;;;;;;5036372;28;20865;-72
2021/11/21 15:00:09;;;;;;;7.00;3.03;;;;;;;;;;5038249;28;20471;-72